sensor_id;sensor_type;location;lat;lon;timestamp;P1;durP1;ratioP1;P2;durP2;ratioP2
19675;SDS011;39539;52.202;9.876;2023-11-18T00:00:29;20.50;;;16.40;;
19675;SDS011;39539;52.202;9.876;2023-11-18T00:02:54;18.98;;;15.23;;
19675;SDS011;39539;52.202;9.876;2023-11-18T00:05:19;22.33;;;16.95;;
19675;SDS011;39539;52.202;9.876;2023-11-18T00:07:46;27.65;;;17.45;;
19675;SDS011;39539;52.202;9.876;2023-11-18T00:10:11;24.98;;;18.50;;
19675;SDS011;39539;52.202;9.876;2023-11-18T00:12:37;24.10;;;19.58;;
19675;SDS011;39539;52.202;9.876;2023-11-18T00:15:06;20.00;;;17.17;;
19675;SDS011;39539;52.202;9.876;2023-11-18T00:17:34;20.85;;;18.00;;
19675;SDS011;39539;52.202;9.876;2023-11-18T00:19:59;25.58;;;18.58;;
19675;SDS011;39539;52.202;9.876;2023-11-18T00:22:24;19.33;;;16.27;;
19675;SDS011;39539;52.202;9.876;2023-11-18T00:24:50;20.55;;;16.88;;
19675;SDS011;39539;52.202;9.876;2023-11-18T00:27:17;19.23;;;16.35;;
19675;SDS011;39539;52.202;9.876;2023-11-18T00:29:42;22.58;;;16.67;;
19675;SDS011;39539;52.202;9.876;2023-11-18T00:32:08;20.90;;;16.73;;
19675;SDS011;39539;52.202;9.876;2023-11-18T00:34:34;20.20;;;16.95;;
19675;SDS011;39539;52.202;9.876;2023-11-18T00:36:59;24.13;;;17.48;;
19675;SDS011;39539;52.202;9.876;2023-11-18T00:39:25;27.50;;;18.92;;
19675;SDS011;39539;52.202;9.876;2023-11-18T00:41:51;20.60;;;17.35;;
19675;SDS011;39539;52.202;9.876;2023-11-18T00:44:17;27.52;;;19.25;;
19675;SDS011;39539;52.202;9.876;2023-11-18T00:46:43;19.38;;;16.50;;
19675;SDS011;39539;52.202;9.876;2023-11-18T00:49:08;24.67;;;18.48;;
19675;SDS011;39539;52.202;9.876;2023-11-18T00:51:33;21.63;;;18.35;;
19675;SDS011;39539;52.202;9.876;2023-11-18T00:53:59;20.58;;;18.17;;
19675;SDS011;39539;52.202;9.876;2023-11-18T00:56:27;22.98;;;17.48;;
19675;SDS011;39539;52.202;9.876;2023-11-18T00:58:53;25.85;;;17.55;;
19675;SDS011;39539;52.202;9.876;2023-11-18T01:01:19;24.25;;;16.83;;
19675;SDS011;39539;52.202;9.876;2023-11-18T01:03:44;25.80;;;19.60;;
19675;SDS011;39539;52.202;9.876;2023-11-18T01:06:10;21.85;;;18.92;;
19675;SDS011;39539;52.202;9.876;2023-11-18T01:08:36;23.50;;;19.05;;
19675;SDS011;39539;52.202;9.876;2023-11-18T01:11:01;23.85;;;19.27;;
19675;SDS011;39539;52.202;9.876;2023-11-18T01:13:29;22.42;;;18.38;;
19675;SDS011;39539;52.202;9.876;2023-11-18T01:15:54;20.67;;;18.00;;
19675;SDS011;39539;52.202;9.876;2023-11-18T01:18:20;34.57;;;31.67;;
19675;SDS011;39539;52.202;9.876;2023-11-18T01:20:45;29.58;;;20.52;;
19675;SDS011;39539;52.202;9.876;2023-11-18T01:23:12;21.58;;;18.63;;
19675;SDS011;39539;52.202;9.876;2023-11-18T01:25:37;26.02;;;20.88;;
19675;SDS011;39539;52.202;9.876;2023-11-18T01:28:02;26.20;;;17.23;;
19675;SDS011;39539;52.202;9.876;2023-11-18T01:30:29;30.25;;;28.00;;
19675;SDS011;39539;52.202;9.876;2023-11-18T01:32:54;26.63;;;20.42;;
19675;SDS011;39539;52.202;9.876;2023-11-18T01:35:19;24.20;;;19.38;;
19675;SDS011;39539;52.202;9.876;2023-11-18T01:37:45;20.25;;;18.08;;
19675;SDS011;39539;52.202;9.876;2023-11-18T01:40:10;20.08;;;17.63;;
19675;SDS011;39539;52.202;9.876;2023-11-18T01:42:43;20.58;;;18.27;;
19675;SDS011;39539;52.202;9.876;2023-11-18T01:45:11;22.30;;;18.98;;
19675;SDS011;39539;52.202;9.876;2023-11-18T01:47:41;23.42;;;19.02;;
19675;SDS011;39539;52.202;9.876;2023-11-18T01:50:08;20.58;;;17.88;;
19675;SDS011;39539;52.202;9.876;2023-11-18T01:52:37;22.63;;;19.20;;
19675;SDS011;39539;52.202;9.876;2023-11-18T01:55:04;23.30;;;18.92;;
19675;SDS011;39539;52.202;9.876;2023-11-18T01:57:32;21.17;;;18.17;;
19675;SDS011;39539;52.202;9.876;2023-11-18T01:59:58;20.33;;;17.95;;
19675;SDS011;39539;52.202;9.876;2023-11-18T02:02:23;27.33;;;19.17;;
19675;SDS011;39539;52.202;9.876;2023-11-18T02:04:49;26.05;;;18.40;;
19675;SDS011;39539;52.202;9.876;2023-11-18T02:07:14;21.50;;;19.27;;
19675;SDS011;39539;52.202;9.876;2023-11-18T02:09:40;27.23;;;20.85;;
19675;SDS011;39539;52.202;9.876;2023-11-18T02:14:41;21.70;;;19.05;;
19675;SDS011;39539;52.202;9.876;2023-11-18T02:17:10;25.75;;;19.98;;
19675;SDS011;39539;52.202;9.876;2023-11-18T02:19:38;23.30;;;19.35;;
19675;SDS011;39539;52.202;9.876;2023-11-18T02:22:05;24.77;;;20.08;;
19675;SDS011;39539;52.202;9.876;2023-11-18T02:24:32;26.92;;;19.90;;
19675;SDS011;39539;52.202;9.876;2023-11-18T02:27:06;27.70;;;20.20;;
19675;SDS011;39539;52.202;9.876;2023-11-18T02:29:36;32.60;;;23.38;;
19675;SDS011;39539;52.202;9.876;2023-11-18T02:32:10;27.13;;;21.17;;
19675;SDS011;39539;52.202;9.876;2023-11-18T02:34:43;30.50;;;20.75;;
19675;SDS011;39539;52.202;9.876;2023-11-18T02:37:13;31.67;;;21.85;;
19675;SDS011;39539;52.202;9.876;2023-11-18T02:39:41;25.60;;;19.30;;
19675;SDS011;39539;52.202;9.876;2023-11-18T02:42:08;26.55;;;20.50;;
19675;SDS011;39539;52.202;9.876;2023-11-18T02:44:35;29.67;;;20.35;;
19675;SDS011;39539;52.202;9.876;2023-11-18T02:47:01;29.40;;;21.27;;
19675;SDS011;39539;52.202;9.876;2023-11-18T02:49:30;30.33;;;22.67;;
19675;SDS011;39539;52.202;9.876;2023-11-18T02:51:55;28.17;;;21.48;;
19675;SDS011;39539;52.202;9.876;2023-11-18T02:54:20;28.15;;;20.95;;
19675;SDS011;39539;52.202;9.876;2023-11-18T02:56:46;25.08;;;20.77;;
19675;SDS011;39539;52.202;9.876;2023-11-18T02:59:11;28.63;;;20.92;;
19675;SDS011;39539;52.202;9.876;2023-11-18T03:01:38;25.25;;;21.42;;
19675;SDS011;39539;52.202;9.876;2023-11-18T03:04:06;32.13;;;21.02;;
19675;SDS011;39539;52.202;9.876;2023-11-18T03:06:32;31.35;;;22.20;;
19675;SDS011;39539;52.202;9.876;2023-11-18T03:08:57;27.95;;;20.65;;
19675;SDS011;39539;52.202;9.876;2023-11-18T03:11:23;29.48;;;21.42;;
19675;SDS011;39539;52.202;9.876;2023-11-18T03:13:48;25.45;;;19.42;;
19675;SDS011;39539;52.202;9.876;2023-11-18T03:16:14;32.08;;;23.73;;
19675;SDS011;39539;52.202;9.876;2023-11-18T03:18:39;27.73;;;21.05;;
19675;SDS011;39539;52.202;9.876;2023-11-18T03:21:12;30.23;;;20.13;;
19675;SDS011;39539;52.202;9.876;2023-11-18T03:23:41;31.63;;;21.83;;
19675;SDS011;39539;52.202;9.876;2023-11-18T03:26:07;31.15;;;23.23;;
19675;SDS011;39539;52.202;9.876;2023-11-18T03:28:33;30.73;;;21.58;;
19675;SDS011;39539;52.202;9.876;2023-11-18T03:30:58;28.50;;;22.08;;
19675;SDS011;39539;52.202;9.876;2023-11-18T03:33:24;34.30;;;21.77;;
19675;SDS011;39539;52.202;9.876;2023-11-18T03:35:49;27.95;;;20.92;;
19675;SDS011;39539;52.202;9.876;2023-11-18T03:38:15;30.23;;;21.75;;
19675;SDS011;39539;52.202;9.876;2023-11-18T03:40:42;34.60;;;21.65;;
19675;SDS011;39539;52.202;9.876;2023-11-18T03:43:09;32.05;;;21.05;;
19675;SDS011;39539;52.202;9.876;2023-11-18T03:45:36;30.85;;;20.95;;
19675;SDS011;39539;52.202;9.876;2023-11-18T03:48:04;31.08;;;22.02;;
19675;SDS011;39539;52.202;9.876;2023-11-18T03:50:31;31.00;;;21.90;;
19675;SDS011;39539;52.202;9.876;2023-11-18T03:52:57;35.78;;;22.52;;
19675;SDS011;39539;52.202;9.876;2023-11-18T03:55:23;34.50;;;21.05;;
19675;SDS011;39539;52.202;9.876;2023-11-18T03:57:50;35.92;;;22.33;;
19675;SDS011;39539;52.202;9.876;2023-11-18T04:00:15;35.72;;;23.02;;
19675;SDS011;39539;52.202;9.876;2023-11-18T04:02:41;33.25;;;21.63;;
19675;SDS011;39539;52.202;9.876;2023-11-18T04:05:06;36.42;;;21.83;;
19675;SDS011;39539;52.202;9.876;2023-11-18T04:07:33;34.70;;;21.58;;
19675;SDS011;39539;52.202;9.876;2023-11-18T04:09:58;29.20;;;20.63;;
19675;SDS011;39539;52.202;9.876;2023-11-18T04:12:25;31.17;;;22.48;;
19675;SDS011;39539;52.202;9.876;2023-11-18T04:14:51;31.75;;;21.02;;
19675;SDS011;39539;52.202;9.876;2023-11-18T04:17:17;39.50;;;22.10;;
19675;SDS011;39539;52.202;9.876;2023-11-18T04:19:42;34.17;;;20.40;;
19675;SDS011;39539;52.202;9.876;2023-11-18T04:22:08;40.40;;;23.20;;
19675;SDS011;39539;52.202;9.876;2023-11-18T04:24:34;34.03;;;21.95;;
19675;SDS011;39539;52.202;9.876;2023-11-18T04:26:59;35.72;;;22.13;;
19675;SDS011;39539;52.202;9.876;2023-11-18T04:29:25;37.17;;;21.77;;
19675;SDS011;39539;52.202;9.876;2023-11-18T04:31:51;37.47;;;24.70;;
19675;SDS011;39539;52.202;9.876;2023-11-18T04:34:18;40.38;;;22.30;;
19675;SDS011;39539;52.202;9.876;2023-11-18T04:36:43;34.47;;;21.92;;
19675;SDS011;39539;52.202;9.876;2023-11-18T04:39:09;40.45;;;23.80;;
19675;SDS011;39539;52.202;9.876;2023-11-18T04:41:36;36.53;;;23.38;;
19675;SDS011;39539;52.202;9.876;2023-11-18T04:44:02;39.92;;;23.40;;
19675;SDS011;39539;52.202;9.876;2023-11-18T04:46:27;36.10;;;22.58;;
19675;SDS011;39539;52.202;9.876;2023-11-18T04:48:53;38.22;;;22.35;;
19675;SDS011;39539;52.202;9.876;2023-11-18T04:51:19;42.53;;;24.27;;
19675;SDS011;39539;52.202;9.876;2023-11-18T04:53:46;42.65;;;22.83;;
19675;SDS011;39539;52.202;9.876;2023-11-18T04:56:11;43.53;;;24.45;;
19675;SDS011;39539;52.202;9.876;2023-11-18T04:58:38;39.83;;;22.70;;
19675;SDS011;39539;52.202;9.876;2023-11-18T05:01:04;39.22;;;19.30;;
19675;SDS011;39539;52.202;9.876;2023-11-18T05:03:29;45.58;;;38.05;;
19675;SDS011;39539;52.202;9.876;2023-11-18T05:05:55;43.50;;;27.48;;
19675;SDS011;39539;52.202;9.876;2023-11-18T05:08:21;40.88;;;24.92;;
19675;SDS011;39539;52.202;9.876;2023-11-18T05:10:47;42.55;;;23.15;;
19675;SDS011;39539;52.202;9.876;2023-11-18T05:13:13;35.83;;;21.50;;
19675;SDS011;39539;52.202;9.876;2023-11-18T05:15:41;40.72;;;23.13;;
19675;SDS011;39539;52.202;9.876;2023-11-18T05:18:10;43.42;;;22.85;;
19675;SDS011;39539;52.202;9.876;2023-11-18T05:20:36;41.78;;;23.08;;
19675;SDS011;39539;52.202;9.876;2023-11-18T05:23:02;44.17;;;23.67;;
19675;SDS011;39539;52.202;9.876;2023-11-18T05:25:28;43.47;;;24.48;;
19675;SDS011;39539;52.202;9.876;2023-11-18T05:27:54;45.55;;;24.90;;
19675;SDS011;39539;52.202;9.876;2023-11-18T05:30:19;44.85;;;24.45;;
19675;SDS011;39539;52.202;9.876;2023-11-18T05:32:44;44.10;;;22.55;;
19675;SDS011;39539;52.202;9.876;2023-11-18T05:35:10;43.25;;;23.13;;
19675;SDS011;39539;52.202;9.876;2023-11-18T05:37:36;42.75;;;22.60;;
19675;SDS011;39539;52.202;9.876;2023-11-18T05:40:03;53.90;;;24.33;;
19675;SDS011;39539;52.202;9.876;2023-11-18T05:42:35;46.70;;;22.65;;
19675;SDS011;39539;52.202;9.876;2023-11-18T05:45:05;41.50;;;21.75;;
19675;SDS011;39539;52.202;9.876;2023-11-18T05:47:35;47.35;;;23.25;;
19675;SDS011;39539;52.202;9.876;2023-11-18T05:50:00;43.53;;;23.63;;
19675;SDS011;39539;52.202;9.876;2023-11-18T05:52:25;49.05;;;23.35;;
19675;SDS011;39539;52.202;9.876;2023-11-18T05:54:51;45.47;;;22.23;;
19675;SDS011;39539;52.202;9.876;2023-11-18T05:57:17;52.00;;;23.83;;
19675;SDS011;39539;52.202;9.876;2023-11-18T05:59:44;43.40;;;23.15;;
19675;SDS011;39539;52.202;9.876;2023-11-18T06:02:11;48.22;;;23.08;;
19675;SDS011;39539;52.202;9.876;2023-11-18T06:04:42;47.92;;;24.05;;
19675;SDS011;39539;52.202;9.876;2023-11-18T06:07:08;49.30;;;22.90;;
19675;SDS011;39539;52.202;9.876;2023-11-18T06:09:33;43.17;;;22.33;;
19675;SDS011;39539;52.202;9.876;2023-11-18T06:11:58;47.45;;;23.15;;
19675;SDS011;39539;52.202;9.876;2023-11-18T06:14:25;45.30;;;22.83;;
19675;SDS011;39539;52.202;9.876;2023-11-18T06:16:51;44.70;;;23.42;;
19675;SDS011;39539;52.202;9.876;2023-11-18T06:19:17;40.92;;;20.73;;
19675;SDS011;39539;52.202;9.876;2023-11-18T06:21:42;46.22;;;22.15;;
19675;SDS011;39539;52.202;9.876;2023-11-18T06:24:07;42.65;;;23.55;;
19675;SDS011;39539;52.202;9.876;2023-11-18T06:26:36;48.20;;;21.65;;
19675;SDS011;39539;52.202;9.876;2023-11-18T06:29:01;48.80;;;23.45;;
19675;SDS011;39539;52.202;9.876;2023-11-18T06:31:28;45.75;;;22.13;;
19675;SDS011;39539;52.202;9.876;2023-11-18T06:33:54;46.15;;;23.00;;
19675;SDS011;39539;52.202;9.876;2023-11-18T06:36:20;50.25;;;22.73;;
19675;SDS011;39539;52.202;9.876;2023-11-18T06:38:48;49.72;;;21.27;;
19675;SDS011;39539;52.202;9.876;2023-11-18T06:41:15;49.75;;;21.35;;
19675;SDS011;39539;52.202;9.876;2023-11-18T06:43:43;41.92;;;22.52;;
19675;SDS011;39539;52.202;9.876;2023-11-18T06:46:19;47.05;;;21.52;;
19675;SDS011;39539;52.202;9.876;2023-11-18T06:48:48;44.53;;;21.95;;
19675;SDS011;39539;52.202;9.876;2023-11-18T06:51:14;39.33;;;19.50;;
19675;SDS011;39539;52.202;9.876;2023-11-18T06:53:42;40.30;;;19.45;;
19675;SDS011;39539;52.202;9.876;2023-11-18T06:56:09;34.17;;;17.40;;
19675;SDS011;39539;52.202;9.876;2023-11-18T06:58:36;30.20;;;17.67;;
19675;SDS011;39539;52.202;9.876;2023-11-18T07:01:03;29.30;;;17.05;;
19675;SDS011;39539;52.202;9.876;2023-11-18T07:03:30;28.63;;;16.88;;
19675;SDS011;39539;52.202;9.876;2023-11-18T07:05:56;37.05;;;17.85;;
19675;SDS011;39539;52.202;9.876;2023-11-18T07:08:22;25.55;;;16.77;;
19675;SDS011;39539;52.202;9.876;2023-11-18T07:10:47;37.08;;;19.33;;
19675;SDS011;39539;52.202;9.876;2023-11-18T07:13:13;32.70;;;18.35;;
19675;SDS011;39539;52.202;9.876;2023-11-18T07:15:39;34.95;;;18.55;;
19675;SDS011;39539;52.202;9.876;2023-11-18T07:18:04;36.05;;;18.90;;
19675;SDS011;39539;52.202;9.876;2023-11-18T07:20:29;37.63;;;20.67;;
19675;SDS011;39539;52.202;9.876;2023-11-18T07:22:55;32.03;;;19.70;;
19675;SDS011;39539;52.202;9.876;2023-11-18T07:25:20;32.17;;;18.55;;
19675;SDS011;39539;52.202;9.876;2023-11-18T07:27:46;36.40;;;20.42;;
19675;SDS011;39539;52.202;9.876;2023-11-18T07:30:11;35.78;;;19.92;;
19675;SDS011;39539;52.202;9.876;2023-11-18T07:32:37;33.10;;;18.77;;
19675;SDS011;39539;52.202;9.876;2023-11-18T07:35:03;40.15;;;20.42;;
19675;SDS011;39539;52.202;9.876;2023-11-18T07:37:33;33.75;;;19.40;;
19675;SDS011;39539;52.202;9.876;2023-11-18T07:39:59;38.33;;;20.42;;
19675;SDS011;39539;52.202;9.876;2023-11-18T07:42:26;31.38;;;18.77;;
19675;SDS011;39539;52.202;9.876;2023-11-18T07:44:51;34.78;;;20.60;;
19675;SDS011;39539;52.202;9.876;2023-11-18T07:47:17;35.17;;;19.92;;
19675;SDS011;39539;52.202;9.876;2023-11-18T07:49:44;35.17;;;17.50;;
19675;SDS011;39539;52.202;9.876;2023-11-18T07:52:10;39.67;;;33.67;;
19675;SDS011;39539;52.202;9.876;2023-11-18T07:54:35;40.50;;;22.58;;
19675;SDS011;39539;52.202;9.876;2023-11-18T07:57:01;33.42;;;20.77;;
19675;SDS011;39539;52.202;9.876;2023-11-18T07:59:26;40.00;;;22.00;;
19675;SDS011;39539;52.202;9.876;2023-11-18T08:01:54;33.15;;;19.02;;
19675;SDS011;39539;52.202;9.876;2023-11-18T08:04:19;34.60;;;20.20;;
19675;SDS011;39539;52.202;9.876;2023-11-18T08:06:45;35.83;;;21.63;;
19675;SDS011;39539;52.202;9.876;2023-11-18T08:09:11;38.22;;;21.33;;
19675;SDS011;39539;52.202;9.876;2023-11-18T08:11:39;38.35;;;20.23;;
19675;SDS011;39539;52.202;9.876;2023-11-18T08:14:09;32.17;;;19.67;;
19675;SDS011;39539;52.202;9.876;2023-11-18T08:16:34;35.28;;;21.52;;
19675;SDS011;39539;52.202;9.876;2023-11-18T08:19:01;36.20;;;20.42;;
19675;SDS011;39539;52.202;9.876;2023-11-18T08:21:33;37.13;;;19.85;;
19675;SDS011;39539;52.202;9.876;2023-11-18T08:24:03;40.85;;;20.15;;
19675;SDS011;39539;52.202;9.876;2023-11-18T08:26:30;35.33;;;19.00;;
19675;SDS011;39539;52.202;9.876;2023-11-18T08:28:55;45.13;;;20.63;;
19675;SDS011;39539;52.202;9.876;2023-11-18T08:31:21;31.35;;;18.58;;
19675;SDS011;39539;52.202;9.876;2023-11-18T08:33:47;36.92;;;17.80;;
19675;SDS011;39539;52.202;9.876;2023-11-18T08:36:12;34.90;;;19.48;;
19675;SDS011;39539;52.202;9.876;2023-11-18T08:38:39;35.35;;;19.50;;
19675;SDS011;39539;52.202;9.876;2023-11-18T08:41:05;33.53;;;18.27;;
19675;SDS011;39539;52.202;9.876;2023-11-18T08:43:34;35.00;;;19.67;;
19675;SDS011;39539;52.202;9.876;2023-11-18T08:46:00;39.65;;;21.38;;
19675;SDS011;39539;52.202;9.876;2023-11-18T08:48:26;39.60;;;21.33;;
19675;SDS011;39539;52.202;9.876;2023-11-18T08:50:51;36.85;;;21.40;;
19675;SDS011;39539;52.202;9.876;2023-11-18T08:53:18;32.90;;;18.60;;
19675;SDS011;39539;52.202;9.876;2023-11-18T08:55:45;31.30;;;18.05;;
19675;SDS011;39539;52.202;9.876;2023-11-18T08:58:19;32.15;;;18.30;;
19675;SDS011;39539;52.202;9.876;2023-11-18T09:00:47;30.38;;;19.67;;
19675;SDS011;39539;52.202;9.876;2023-11-18T09:03:19;36.75;;;29.77;;
19675;SDS011;39539;52.202;9.876;2023-11-18T09:05:57;30.67;;;27.10;;
19675;SDS011;39539;52.202;9.876;2023-11-18T09:08:24;30.45;;;25.80;;
19675;SDS011;39539;52.202;9.876;2023-11-18T09:10:50;28.80;;;25.55;;
19675;SDS011;39539;52.202;9.876;2023-11-18T09:13:19;28.48;;;25.45;;
19675;SDS011;39539;52.202;9.876;2023-11-18T09:15:53;34.28;;;18.60;;
19675;SDS011;39539;52.202;9.876;2023-11-18T09:18:22;30.80;;;17.58;;
19675;SDS011;39539;52.202;9.876;2023-11-18T09:20:50;26.80;;;17.25;;
19675;SDS011;39539;52.202;9.876;2023-11-18T09:23:17;32.88;;;17.15;;
19675;SDS011;39539;52.202;9.876;2023-11-18T09:25:44;23.95;;;16.13;;
19675;SDS011;39539;52.202;9.876;2023-11-18T09:28:11;20.50;;;12.93;;
19675;SDS011;39539;52.202;9.876;2023-11-18T09:30:39;17.58;;;11.98;;
19675;SDS011;39539;52.202;9.876;2023-11-18T09:33:14;16.80;;;11.18;;
19675;SDS011;39539;52.202;9.876;2023-11-18T09:35:50;13.07;;;10.75;;
19675;SDS011;39539;52.202;9.876;2023-11-18T09:38:30;18.27;;;16.63;;
19675;SDS011;39539;52.202;9.876;2023-11-18T09:40:58;22.23;;;20.15;;
19675;SDS011;39539;52.202;9.876;2023-11-18T09:43:28;17.23;;;15.60;;
19675;SDS011;39539;52.202;9.876;2023-11-18T09:46:01;14.00;;;12.77;;
19675;SDS011;39539;52.202;9.876;2023-11-18T09:48:33;12.95;;;11.95;;
19675;SDS011;39539;52.202;9.876;2023-11-18T09:51:05;13.48;;;12.27;;
19675;SDS011;39539;52.202;9.876;2023-11-18T09:53:32;13.40;;;12.27;;
19675;SDS011;39539;52.202;9.876;2023-11-18T09:56:05;13.45;;;12.25;;
19675;SDS011;39539;52.202;9.876;2023-11-18T09:58:45;13.60;;;12.45;;
19675;SDS011;39539;52.202;9.876;2023-11-18T10:01:19;13.77;;;12.57;;
19675;SDS011;39539;52.202;9.876;2023-11-18T10:03:48;11.98;;;10.98;;
19675;SDS011;39539;52.202;9.876;2023-11-18T10:06:17;9.27;;;7.90;;
19675;SDS011;39539;52.202;9.876;2023-11-18T10:08:47;9.80;;;7.82;;
19675;SDS011;39539;52.202;9.876;2023-11-18T10:11:19;7.90;;;7.10;;
19675;SDS011;39539;52.202;9.876;2023-11-18T10:13:49;7.68;;;6.75;;
19675;SDS011;39539;52.202;9.876;2023-11-18T10:16:17;9.98;;;6.13;;
19675;SDS011;39539;52.202;9.876;2023-11-18T10:18:45;7.43;;;5.70;;
19675;SDS011;39539;52.202;9.876;2023-11-18T10:21:14;7.30;;;5.70;;
19675;SDS011;39539;52.202;9.876;2023-11-18T10:24:04;6.80;;;6.07;;
19675;SDS011;39539;52.202;9.876;2023-11-18T10:26:32;7.38;;;5.53;;
19675;SDS011;39539;52.202;9.876;2023-11-18T10:29:02;8.27;;;5.82;;
19675;SDS011;39539;52.202;9.876;2023-11-18T10:31:32;5.30;;;4.80;;
19675;SDS011;39539;52.202;9.876;2023-11-18T10:34:05;7.10;;;5.30;;
19675;SDS011;39539;52.202;9.876;2023-11-18T10:36:37;8.05;;;4.97;;
19675;SDS011;39539;52.202;9.876;2023-11-18T10:39:22;7.30;;;6.70;;
19675;SDS011;39539;52.202;9.876;2023-11-18T10:41:50;8.27;;;7.57;;
19675;SDS011;39539;52.202;9.876;2023-11-18T10:44:16;7.85;;;7.10;;
19675;SDS011;39539;52.202;9.876;2023-11-18T10:49:44;7.30;;;6.70;;
19675;SDS011;39539;52.202;9.876;2023-11-18T10:52:11;7.70;;;6.97;;
19675;SDS011;39539;52.202;9.876;2023-11-18T10:57:35;7.40;;;6.15;;
19675;SDS011;39539;52.202;9.876;2023-11-18T11:00:08;6.70;;;6.20;;
19675;SDS011;39539;52.202;9.876;2023-11-18T11:02:47;6.57;;;5.97;;
19675;SDS011;39539;52.202;9.876;2023-11-18T11:05:28;6.80;;;6.13;;
19675;SDS011;39539;52.202;9.876;2023-11-18T11:08:01;7.00;;;6.30;;
19675;SDS011;39539;52.202;9.876;2023-11-18T11:10:30;10.02;;;6.00;;
19675;SDS011;39539;52.202;9.876;2023-11-18T11:12:56;6.50;;;5.85;;
19675;SDS011;39539;52.202;9.876;2023-11-18T11:15:29;6.30;;;5.80;;
19675;SDS011;39539;52.202;9.876;2023-11-18T11:18:07;6.68;;;6.07;;
19675;SDS011;39539;52.202;9.876;2023-11-18T11:20:47;7.03;;;6.30;;
19675;SDS011;39539;52.202;9.876;2023-11-18T11:29:13;8.65;;;7.88;;
19675;SDS011;39539;52.202;9.876;2023-11-18T11:32:35;7.50;;;6.68;;
19675;SDS011;39539;52.202;9.876;2023-11-18T11:34:56;6.30;;;5.70;;
19675;SDS011;39539;52.202;9.876;2023-11-18T11:37:34;6.85;;;6.28;;
19675;SDS011;39539;52.202;9.876;2023-11-18T11:40:02;7.43;;;6.88;;
19675;SDS011;39539;52.202;9.876;2023-11-18T11:42:34;8.00;;;7.43;;
19675;SDS011;39539;52.202;9.876;2023-11-18T11:44:59;7.80;;;7.13;;
19675;SDS011;39539;52.202;9.876;2023-11-18T11:47:36;7.53;;;6.93;;
19675;SDS011;39539;52.202;9.876;2023-11-18T11:50:13;5.85;;;5.45;;
19675;SDS011;39539;52.202;9.876;2023-11-18T11:52:48;7.47;;;6.95;;
19675;SDS011;39539;52.202;9.876;2023-11-18T11:55:23;7.05;;;6.45;;
19675;SDS011;39539;52.202;9.876;2023-11-18T11:58:24;7.50;;;7.00;;
19675;SDS011;39539;52.202;9.876;2023-11-18T12:00:52;7.93;;;7.22;;
19675;SDS011;39539;52.202;9.876;2023-11-18T12:03:19;7.22;;;6.63;;
19675;SDS011;39539;52.202;9.876;2023-11-18T12:05:49;7.65;;;5.78;;
19675;SDS011;39539;52.202;9.876;2023-11-18T12:08:16;7.60;;;6.13;;
19675;SDS011;39539;52.202;9.876;2023-11-18T12:10:53;7.97;;;7.38;;
19675;SDS011;39539;52.202;9.876;2023-11-18T12:13:21;7.45;;;6.93;;
19675;SDS011;39539;52.202;9.876;2023-11-18T12:18:31;9.88;;;9.15;;
19675;SDS011;39539;52.202;9.876;2023-11-18T12:21:02;8.57;;;7.88;;
19675;SDS011;39539;52.202;9.876;2023-11-18T12:23:29;6.40;;;5.80;;
19675;SDS011;39539;52.202;9.876;2023-11-18T12:25:55;7.95;;;7.35;;
19675;SDS011;39539;52.202;9.876;2023-11-18T12:28:32;8.02;;;7.43;;
19675;SDS011;39539;52.202;9.876;2023-11-18T12:31:10;9.40;;;8.65;;
19675;SDS011;39539;52.202;9.876;2023-11-18T12:41:43;8.10;;;7.30;;
19675;SDS011;39539;52.202;9.876;2023-11-18T12:44:48;7.03;;;6.32;;
19675;SDS011;39539;52.202;9.876;2023-11-18T12:47:27;8.45;;;7.85;;
19675;SDS011;39539;52.202;9.876;2023-11-18T12:49:57;8.35;;;7.72;;
19675;SDS011;39539;52.202;9.876;2023-11-18T12:52:40;7.80;;;7.20;;
19675;SDS011;39539;52.202;9.876;2023-11-18T12:55:14;7.85;;;7.18;;
19675;SDS011;39539;52.202;9.876;2023-11-18T12:57:47;7.63;;;7.13;;
19675;SDS011;39539;52.202;9.876;2023-11-18T13:00:19;9.48;;;8.77;;
19675;SDS011;39539;52.202;9.876;2023-11-18T13:02:51;8.43;;;7.82;;
19675;SDS011;39539;52.202;9.876;2023-11-18T13:05:20;7.82;;;7.32;;
19675;SDS011;39539;52.202;9.876;2023-11-18T13:07:45;7.38;;;6.75;;
19675;SDS011;39539;52.202;9.876;2023-11-18T13:10:17;6.68;;;6.18;;
19675;SDS011;39539;52.202;9.876;2023-11-18T13:12:43;6.30;;;5.90;;
19675;SDS011;39539;52.202;9.876;2023-11-18T13:15:10;6.70;;;6.25;;
19675;SDS011;39539;52.202;9.876;2023-11-18T13:17:37;6.70;;;5.10;;
19675;SDS011;39539;52.202;9.876;2023-11-18T13:20:14;5.18;;;4.68;;
19675;SDS011;39539;52.202;9.876;2023-11-18T13:22:50;5.43;;;4.93;;
19675;SDS011;39539;52.202;9.876;2023-11-18T13:25:25;5.82;;;5.22;;
19675;SDS011;39539;52.202;9.876;2023-11-18T13:27:54;8.00;;;5.88;;
19675;SDS011;39539;52.202;9.876;2023-11-18T13:30:20;8.27;;;6.40;;
19675;SDS011;39539;52.202;9.876;2023-11-18T13:32:47;9.25;;;7.05;;
19675;SDS011;39539;52.202;9.876;2023-11-18T13:35:26;5.63;;;5.13;;
19675;SDS011;39539;52.202;9.876;2023-11-18T13:37:53;8.50;;;6.10;;
19675;SDS011;39539;52.202;9.876;2023-11-18T13:40:19;6.65;;;5.65;;
19675;SDS011;39539;52.202;9.876;2023-11-18T13:42:44;7.18;;;6.68;;
19675;SDS011;39539;52.202;9.876;2023-11-18T13:45:13;9.50;;;8.70;;
19675;SDS011;39539;52.202;9.876;2023-11-18T13:47:50;8.45;;;6.88;;
19675;SDS011;39539;52.202;9.876;2023-11-18T13:50:17;10.82;;;7.80;;
19675;SDS011;39539;52.202;9.876;2023-11-18T13:52:44;6.55;;;5.78;;
19675;SDS011;39539;52.202;9.876;2023-11-18T13:55:11;10.60;;;7.65;;
19675;SDS011;39539;52.202;9.876;2023-11-18T13:57:42;6.05;;;5.47;;
19675;SDS011;39539;52.202;9.876;2023-11-18T14:00:15;6.03;;;5.30;;
19675;SDS011;39539;52.202;9.876;2023-11-18T14:02:41;5.60;;;5.10;;
19675;SDS011;39539;52.202;9.876;2023-11-18T14:05:16;7.35;;;5.07;;
19675;SDS011;39539;52.202;9.876;2023-11-18T14:07:42;8.07;;;4.47;;
19675;SDS011;39539;52.202;9.876;2023-11-18T14:10:10;6.38;;;4.82;;
19675;SDS011;39539;52.202;9.876;2023-11-18T14:12:59;5.90;;;5.30;;
19675;SDS011;39539;52.202;9.876;2023-11-18T14:15:25;5.88;;;5.28;;
19675;SDS011;39539;52.202;9.876;2023-11-18T14:17:51;5.60;;;5.10;;
19675;SDS011;39539;52.202;9.876;2023-11-18T14:20:18;9.13;;;5.82;;
19675;SDS011;39539;52.202;9.876;2023-11-18T14:22:48;5.35;;;4.85;;
19675;SDS011;39539;52.202;9.876;2023-11-18T14:25:17;5.63;;;5.00;;
19675;SDS011;39539;52.202;9.876;2023-11-18T14:27:55;5.30;;;4.70;;
19675;SDS011;39539;52.202;9.876;2023-11-18T14:30:20;5.68;;;5.07;;
19675;SDS011;39539;52.202;9.876;2023-11-18T14:32:53;7.53;;;5.38;;
19675;SDS011;39539;52.202;9.876;2023-11-18T14:35:22;5.93;;;5.43;;
19675;SDS011;39539;52.202;9.876;2023-11-18T14:37:47;5.60;;;5.10;;
19675;SDS011;39539;52.202;9.876;2023-11-18T14:40:16;6.53;;;5.13;;
19675;SDS011;39539;52.202;9.876;2023-11-18T14:42:42;5.40;;;4.93;;
19675;SDS011;39539;52.202;9.876;2023-11-18T14:45:10;6.72;;;5.72;;
19675;SDS011;39539;52.202;9.876;2023-11-18T14:47:39;6.65;;;5.78;;
19675;SDS011;39539;52.202;9.876;2023-11-18T14:50:06;9.20;;;8.50;;
19675;SDS011;39539;52.202;9.876;2023-11-18T14:52:48;7.88;;;7.20;;
19675;SDS011;39539;52.202;9.876;2023-11-18T14:55:16;7.60;;;6.13;;
19675;SDS011;39539;52.202;9.876;2023-11-18T14:57:42;7.03;;;6.20;;
19675;SDS011;39539;52.202;9.876;2023-11-18T15:00:09;6.25;;;5.65;;